Time;durP1;ratioP1;P1;durP2;ratioP2;P2;SDS_P1;SDS_P2;PMS_P1;PMS_P2;Temp;Humidity;BMP_temperature;BMP_pressure;BME280_temperature;BME280_humidity;BME280_pressure;Samples;Min_cycle;Max_cycle;Signal;HPM_P1;HPM_P2
2022/10/01 00:00:54;;;;;;;7.88;4.00;;;;;;;;;;5030899;28;20028;-79
2022/10/01 00:03:21;;;;;;;6.45;3.60;;;;;;;;;;5023538;28;20021;-79
2022/10/01 00:05:56;;;;;;;5.85;3.45;;;;;;;;;;5033481;28;20036;-80
2022/10/01 00:08:22;;;;;;;9.55;4.18;;;;;;;;;;5031947;28;20043;-80
2022/10/01 00:10:47;;;;;;;11.75;4.60;;;;;;;;;;5045852;28;20036;-79
2022/10/01 00:13:15;;;;;;;7.75;3.97;;;;;;;;;;5043854;28;20032;-78
2022/10/01 00:15:41;;;;;;;11.73;4.28;;;;;;;;;;5048209;28;20032;-78
2022/10/01 00:18:09;;;;;;;6.47;4.07;;;;;;;;;;5052361;28;20024;-78
2022/10/01 00:20:42;;;;;;;9.00;4.18;;;;;;;;;;5051867;28;20024;-79
2022/10/01 00:23:11;;;;;;;6.43;4.22;;;;;;;;;;5049634;28;20041;-80
2022/10/01 00:25:37;;;;;;;7.20;4.35;;;;;;;;;;5050831;28;20077;-80
2022/10/01 00:28:02;;;;;;;10.50;5.20;;;;;;;;;;5052052;28;20031;-80
2022/10/01 00:30:28;;;;;;;13.38;5.13;;;;;;;;;;5049010;28;20028;-80
2022/10/01 00:32:54;;;;;;;4.22;3.15;;;;;;;;;;5046697;28;20729;-78
2022/10/01 00:35:24;;;;;;;3.97;2.88;;;;;;;;;;5033846;28;20075;-79
2022/10/01 00:37:51;;;;;;;6.90;3.35;;;;;;;;;;5053375;28;20021;-81
2022/10/01 00:40:18;;;;;;;3.80;2.88;;;;;;;;;;5053628;28;20135;-79
2022/10/01 00:42:44;;;;;;;6.20;3.13;;;;;;;;;;5049592;28;20024;-81
2022/10/01 00:45:11;;;;;;;5.57;3.20;;;;;;;;;;5029720;28;20028;-78
2022/10/01 00:47:49;;;;;;;4.70;3.50;;;;;;;;;;5047436;28;20032;-79
2022/10/01 00:50:36;;;;;;;4.70;2.80;;;;;;;;;;5029738;28;20051;-79
2022/10/01 00:53:05;;;;;;;4.15;2.70;;;;;;;;;;5045384;28;20075;-80
2022/10/01 00:55:35;;;;;;;4.25;2.78;;;;;;;;;;5046617;28;21793;-79
2022/10/01 00:58:01;;;;;;;4.35;2.75;;;;;;;;;;5047656;28;20028;-79
2022/10/01 01:00:27;;;;;;;4.10;2.90;;;;;;;;;;5051375;28;20040;-80
2022/10/01 01:02:53;;;;;;;3.47;2.63;;;;;;;;;;5047302;28;20115;-80
2022/10/01 01:05:19;;;;;;;3.92;2.67;;;;;;;;;;5049377;28;20044;-81
2022/10/01 01:07:46;;;;;;;6.63;2.83;;;;;;;;;;5056218;28;20036;-80
2022/10/01 01:10:15;;;;;;;4.50;2.78;;;;;;;;;;5056426;28;20032;-80
2022/10/01 01:12:47;;;;;;;4.93;2.35;;;;;;;;;;5046198;28;20125;-79
2022/10/01 01:15:31;;;;;;;;;;;;;;;;;;5051041;28;20119;-80
2022/10/01 01:18:05;;;;;;;3.72;2.22;;;;;;;;;;5050398;28;19920;-80
2022/10/01 01:20:43;;;;;;;4.00;2.60;;;;;;;;;;5055745;28;20119;-81
2022/10/01 01:23:15;;;;;;;2.92;2.30;;;;;;;;;;5054531;28;20486;-80
2022/10/01 01:25:59;;;;;;;3.10;2.38;;;;;;;;;;5056542;28;20086;-80
2022/10/01 01:28:57;;;;;;;10.73;2.75;;;;;;;;;;5055630;28;21150;-80
2022/10/01 01:31:30;;;;;;;3.28;2.10;;;;;;;;;;5041330;28;20101;-80
2022/10/01 01:33:57;;;;;;;4.45;2.50;;;;;;;;;;5056209;28;20072;-80
2022/10/01 01:36:31;;;;;;;2.47;2.28;;;;;;;;;;5056315;28;20028;-80
2022/10/01 01:39:02;;;;;;;3.72;2.35;;;;;;;;;;5055271;28;20032;-80
2022/10/01 01:41:33;;;;;;;3.28;2.25;;;;;;;;;;5040936;28;20043;-81
2022/10/01 01:44:01;;;;;;;2.55;2.35;;;;;;;;;;5063798;28;20066;-80
2022/10/01 01:46:32;;;;;;;7.60;2.40;;;;;;;;;;5060702;28;20153;-81
2022/10/01 01:48:59;;;;;;;2.55;2.20;;;;;;;;;;5056022;28;20024;-80
2022/10/01 01:51:40;;;;;;;3.97;2.22;;;;;;;;;;5055006;28;20037;-80
2022/10/01 01:54:06;;;;;;;2.50;2.20;;;;;;;;;;5056385;28;20033;-80
2022/10/01 01:56:33;;;;;;;2.30;2.10;;;;;;;;;;5036277;28;20456;-81
2022/10/01 01:58:59;;;;;;;2.80;2.10;;;;;;;;;;5055486;28;20545;-80
2022/10/01 02:01:40;;;;;;;3.45;2.40;;;;;;;;;;5051558;28;20058;-81
2022/10/01 02:04:18;;;;;;;2.10;1.90;;;;;;;;;;5060985;28;20028;-79
2022/10/01 02:06:46;;;;;;;4.70;2.70;;;;;;;;;;5056777;28;20989;-79
2022/10/01 02:09:43;;;;;;;3.38;2.35;;;;;;;;;;5058704;28;20017;-80
2022/10/01 02:12:18;;;;;;;2.92;2.00;;;;;;;;;;5051288;28;20096;-79
2022/10/01 02:15:05;;;;;;;5.90;2.10;;;;;;;;;;5050128;28;20025;-80
2022/10/01 02:18:03;;;;;;;2.45;2.25;;;;;;;;;;5050258;28;20038;-80
2022/10/01 02:20:44;;;;;;;4.15;2.50;;;;;;;;;;5038987;28;20979;-80
2022/10/01 02:23:34;;;;;;;3.70;2.30;;;;;;;;;;5057596;28;20095;-80
2022/10/01 02:26:07;;;;;;;3.72;1.95;;;;;;;;;;5059372;28;20028;-80
2022/10/01 02:28:36;;;;;;;3.22;2.33;;;;;;;;;;5057924;28;20024;-80
2022/10/01 02:31:03;;;;;;;3.25;2.00;;;;;;;;;;5058464;28;20032;-80
2022/10/01 02:33:32;;;;;;;2.30;2.08;;;;;;;;;;5060103;28;20040;-78
2022/10/01 02:36:00;;;;;;;3.63;1.77;;;;;;;;;;5060328;28;20052;-79
2022/10/01 02:38:27;;;;;;;5.60;2.08;;;;;;;;;;5058993;28;20025;-80
2022/10/01 02:41:01;;;;;;;2.05;1.88;;;;;;;;;;5059640;28;21270;-80
2022/10/01 02:43:38;;;;;;;2.75;1.80;;;;;;;;;;5059537;28;20570;-79
2022/10/01 02:46:13;;;;;;;2.67;1.60;;;;;;;;;;5057872;28;20025;-80
2022/10/01 02:48:38;;;;;;;2.05;1.90;;;;;;;;;;5057254;28;20026;-79
2022/10/01 02:51:43;;;;;;;2.58;1.95;;;;;;;;;;5053018;28;20037;-79
2022/10/01 02:54:15;;;;;;;2.47;1.90;;;;;;;;;;5050763;28;20052;-79
2022/10/01 02:59:25;;;;;;;2.22;1.77;;;;;;;;;;5053077;28;20156;-79
2022/10/01 03:01:50;;;;;;;3.83;2.13;;;;;;;;;;5055484;28;20028;-79
2022/10/01 03:04:17;;;;;;;2.38;1.83;;;;;;;;;;5054093;28;20032;-79
2022/10/01 03:06:42;;;;;;;2.88;2.00;;;;;;;;;;5055536;28;20025;-79
2022/10/01 03:09:07;;;;;;;2.72;1.85;;;;;;;;;;5039533;28;20031;-78
2022/10/01 03:11:33;;;;;;;2.08;1.70;;;;;;;;;;5051694;28;20067;-79
2022/10/01 03:14:00;;;;;;;5.00;1.90;;;;;;;;;;5050910;28;20100;-79
2022/10/01 03:16:25;;;;;;;2.35;2.03;;;;;;;;;;5050470;28;20024;-80
2022/10/01 03:18:51;;;;;;;4.00;1.50;;;;;;;;;;5055932;28;20027;-79
2022/10/01 03:21:16;;;;;;;3.33;1.80;;;;;;;;;;5064408;28;20026;-79
2022/10/01 03:23:41;;;;;;;5.88;1.80;;;;;;;;;;5061130;28;20117;-78
2022/10/01 03:26:07;;;;;;;2.38;1.85;;;;;;;;;;5063029;28;20406;-79
2022/10/01 03:28:32;;;;;;;1.60;1.50;;;;;;;;;;5062233;28;20585;-79
2022/10/01 03:31:05;;;;;;;2.63;1.90;;;;;;;;;;5042850;28;20033;-79
2022/10/01 03:33:30;;;;;;;1.60;1.50;;;;;;;;;;5061879;28;20513;-79
2022/10/01 03:35:56;;;;;;;2.08;1.88;;;;;;;;;;5061698;28;20051;-78
2022/10/01 03:38:21;;;;;;;1.75;1.60;;;;;;;;;;5059270;28;20050;-80
2022/10/01 03:40:46;;;;;;;1.63;1.50;;;;;;;;;;5061759;28;20028;-79
2022/10/01 03:43:12;;;;;;;2.47;1.42;;;;;;;;;;5059621;28;20028;-79
2022/10/01 03:45:38;;;;;;;1.60;1.48;;;;;;;;;;5059162;28;20032;-79
2022/10/01 03:48:03;;;;;;;2.65;1.70;;;;;;;;;;5060218;28;20104;-78
2022/10/01 03:50:28;;;;;;;3.63;1.60;;;;;;;;;;5061123;28;20210;-79
2022/10/01 03:52:54;;;;;;;4.40;1.70;;;;;;;;;;5063330;28;20092;-78
2022/10/01 03:55:19;;;;;;;1.77;1.67;;;;;;;;;;5061461;28;20658;-79
2022/10/01 03:57:45;;;;;;;2.13;1.90;;;;;;;;;;5045301;28;20044;-79
2022/10/01 04:00:12;;;;;;;4.13;2.42;;;;;;;;;;5051489;28;20531;-78
2022/10/01 04:02:38;;;;;;;2.08;1.88;;;;;;;;;;5060488;28;20637;-77
2022/10/01 04:05:04;;;;;;;6.13;1.65;;;;;;;;;;5058136;28;20032;-78
2022/10/01 04:07:29;;;;;;;2.47;1.52;;;;;;;;;;5070053;28;20474;-78
2022/10/01 04:09:55;;;;;;;2.78;1.42;;;;;;;;;;5060109;28;20056;-79
2022/10/01 04:12:20;;;;;;;2.58;1.52;;;;;;;;;;5038420;28;20024;-78
2022/10/01 04:14:45;;;;;;;5.10;1.65;;;;;;;;;;5056291;28;20379;-78
2022/10/01 04:17:10;;;;;;;6.30;1.73;;;;;;;;;;5055532;28;20402;-78
2022/10/01 04:19:36;;;;;;;3.28;2.17;;;;;;;;;;5058587;28;20631;-78
2022/10/01 04:22:01;;;;;;;13.50;5.95;;;;;;;;;;5057580;28;20028;-79
2022/10/01 04:24:26;;;;;;;3.30;2.17;;;;;;;;;;5060222;28;20032;-78
2022/10/01 04:26:52;;;;;;;2.50;1.50;;;;;;;;;;5056554;28;20367;-79
2022/10/01 04:29:17;;;;;;;1.85;1.40;;;;;;;;;;5038969;28;20657;-79
2022/10/01 04:31:42;;;;;;;2.00;1.27;;;;;;;;;;5057395;28;20107;-77
2022/10/01 04:34:08;;;;;;;3.47;1.40;;;;;;;;;;5058107;28;20055;-78
2022/10/01 04:36:33;;;;;;;2.33;1.40;;;;;;;;;;5058515;28;20051;-79
2022/10/01 04:38:58;;;;;;;1.58;1.48;;;;;;;;;;5056702;28;20024;-79
2022/10/01 04:41:24;;;;;;;2.28;1.35;;;;;;;;;;5057631;28;20086;-78
2022/10/01 04:43:50;;;;;;;1.90;1.40;;;;;;;;;;5060181;28;20013;-78
2022/10/01 04:46:16;;;;;;;1.48;1.38;;;;;;;;;;5056909;28;20085;-81
2022/10/01 04:48:41;;;;;;;1.95;1.20;;;;;;;;;;5056027;28;20107;-80
2022/10/01 04:51:07;;;;;;;1.30;1.20;;;;;;;;;;5038743;28;20044;-79
2022/10/01 04:53:32;;;;;;;1.13;1.13;;;;;;;;;;5053614;28;20029;-79
2022/10/01 04:55:57;;;;;;;1.20;1.10;;;;;;;;;;5055784;28;20048;-79
2022/10/01 04:58:23;;;;;;;1.58;1.40;;;;;;;;;;5048774;28;20034;-80
2022/10/01 05:00:49;;;;;;;1.40;1.30;;;;;;;;;;5051195;28;20148;-79
2022/10/01 05:03:14;;;;;;;3.25;1.55;;;;;;;;;;5051782;28;20055;-79
2022/10/01 05:05:40;;;;;;;1.17;1.00;;;;;;;;;;5050600;28;20048;-79
2022/10/01 05:08:05;;;;;;;1.83;1.38;;;;;;;;;;5051406;28;20035;-79
2022/10/01 05:10:31;;;;;;;3.75;1.40;;;;;;;;;;5048483;28;21084;-79
2022/10/01 05:12:57;;;;;;;1.27;1.17;;;;;;;;;;5050055;28;20036;-79
2022/10/01 05:15:22;;;;;;;3.10;1.58;;;;;;;;;;5050046;28;20033;-79
2022/10/01 05:17:48;;;;;;;3.55;1.20;;;;;;;;;;5032598;28;20024;-79
2022/10/01 05:20:22;;;;;;;1.38;1.27;;;;;;;;;;5053514;28;20542;-79
2022/10/01 05:22:51;;;;;;;1.38;1.27;;;;;;;;;;5056221;28;20021;-79
2022/10/01 05:25:17;;;;;;;1.27;1.17;;;;;;;;;;5052984;28;20095;-78
2022/10/01 05:27:43;;;;;;;1.25;1.15;;;;;;;;;;5058095;28;20032;-79
2022/10/01 05:30:10;;;;;;;2.08;1.23;;;;;;;;;;5060352;28;21022;-79
2022/10/01 05:32:36;;;;;;;1.30;1.20;;;;;;;;;;5060104;28;20032;-79
2022/10/01 05:35:03;;;;;;;1.40;1.30;;;;;;;;;;5060991;28;20028;-77
2022/10/01 05:37:28;;;;;;;1.50;1.40;;;;;;;;;;5060796;28;20035;-79
2022/10/01 05:39:53;;;;;;;1.92;1.27;;;;;;;;;;5058148;28;20029;-79
2022/10/01 05:42:18;;;;;;;2.25;1.58;;;;;;;;;;5060752;28;20178;-79
2022/10/01 05:44:48;;;;;;;1.23;1.13;;;;;;;;;;5058500;28;20040;-79
2022/10/01 05:47:15;;;;;;;1.17;1.00;;;;;;;;;;5061749;28;20119;-80
2022/10/01 05:49:43;;;;;;;1.45;1.10;;;;;;;;;;5059718;28;20016;-79
2022/10/01 05:52:13;;;;;;;2.67;1.20;;;;;;;;;;5056908;28;20048;-78
2022/10/01 05:54:38;;;;;;;1.42;1.20;;;;;;;;;;5042103;28;20043;-77
2022/10/01 05:57:05;;;;;;;3.15;1.45;;;;;;;;;;5067207;28;20024;-78
2022/10/01 05:59:30;;;;;;;1.92;1.63;;;;;;;;;;5065883;28;20028;-78
2022/10/01 06:01:55;;;;;;;1.98;1.55;;;;;;;;;;5068628;28;20040;-78
2022/10/01 06:04:21;;;;;;;3.00;1.38;;;;;;;;;;5046256;28;20020;-78
2022/10/01 06:06:46;;;;;;;2.33;1.40;;;;;;;;;;5068216;28;20055;-78
2022/10/01 06:09:12;;;;;;;1.45;1.30;;;;;;;;;;5067357;28;20036;-78
2022/10/01 06:11:38;;;;;;;1.42;1.20;;;;;;;;;;5048413;28;20040;-79
2022/10/01 06:14:04;;;;;;;2.03;1.42;;;;;;;;;;5071405;28;20366;-78
2022/10/01 06:16:30;;;;;;;1.67;1.30;;;;;;;;;;5065739;28;20063;-78
2022/10/01 06:18:56;;;;;;;2.78;1.60;;;;;;;;;;5070419;28;20021;-78
2022/10/01 06:21:26;;;;;;;1.00;1.00;;;;;;;;;;5072404;28;20043;-79
2022/10/01 06:23:51;;;;;;;2.45;1.13;;;;;;;;;;5039470;28;20497;-79
2022/10/01 06:26:17;;;;;;;1.20;1.10;;;;;;;;;;5060496;28;20033;-79
2022/10/01 06:28:43;;;;;;;2.67;1.60;;;;;;;;;;5062405;28;20028;-80
2022/10/01 06:31:08;;;;;;;1.40;1.30;;;;;;;;;;5042226;28;20470;-79
2022/10/01 06:33:34;;;;;;;2.60;1.50;;;;;;;;;;5062119;28;20476;-79
2022/10/01 06:35:59;;;;;;;3.13;1.00;;;;;;;;;;5059100;28;20021;-80
2022/10/01 06:38:25;;;;;;;1.40;1.30;;;;;;;;;;5062530;28;20039;-79
2022/10/01 06:40:55;;;;;;;3.10;1.00;;;;;;;;;;5045528;28;20028;-80
2022/10/01 06:43:22;;;;;;;1.40;1.30;;;;;;;;;;5052523;28;20059;-79
2022/10/01 06:45:47;;;;;;;1.33;1.23;;;;;;;;;;5050698;28;20035;-80
2022/10/01 06:48:15;;;;;;;1.30;1.20;;;;;;;;;;5064028;28;20021;-80
2022/10/01 06:50:42;;;;;;;4.13;1.27;;;;;;;;;;5042754;28;20032;-80
2022/10/01 06:53:07;;;;;;;1.70;1.30;;;;;;;;;;5044793;28;20033;-79
2022/10/01 06:55:34;;;;;;;2.35;1.40;;;;;;;;;;5054829;28;20032;-81
2022/10/01 06:58:03;;;;;;;1.50;1.40;;;;;;;;;;5047383;28;20578;-80
2022/10/01 07:00:30;;;;;;;1.70;1.60;;;;;;;;;;5074456;28;20371;-80
2022/10/01 07:02:55;;;;;;;1.25;1.15;;;;;;;;;;5067934;28;20036;-80
2022/10/01 07:05:25;;;;;;;2.03;1.38;;;;;;;;;;5048468;28;20033;-81
2022/10/01 07:07:50;;;;;;;1.73;1.40;;;;;;;;;;5070479;28;20020;-79
2022/10/01 07:10:20;;;;;;;4.00;1.17;;;;;;;;;;5069855;28;20020;-79
2022/10/01 07:12:50;;;;;;;2.22;1.38;;;;;;;;;;5072866;28;20017;-81
2022/10/01 07:15:24;;;;;;;1.40;1.30;;;;;;;;;;5076881;28;20629;-81
2022/10/01 07:17:50;;;;;;;1.73;1.40;;;;;;;;;;5049891;28;20029;-82
2022/10/01 07:20:17;;;;;;;4.00;1.50;;;;;;;;;;5068579;28;20386;-78
2022/10/01 07:22:43;;;;;;;1.48;1.10;;;;;;;;;;5070148;28;20032;-80
2022/10/01 07:25:09;;;;;;;2.00;1.80;;;;;;;;;;5061443;28;20072;-81
2022/10/01 07:27:35;;;;;;;2.17;1.67;;;;;;;;;;5056540;28;20109;-79
2022/10/01 07:30:01;;;;;;;3.47;1.77;;;;;;;;;;5049428;28;20013;-80
2022/10/01 07:32:26;;;;;;;3.67;1.70;;;;;;;;;;5067803;28;20042;-81
2022/10/01 07:34:51;;;;;;;1.88;1.25;;;;;;;;;;5049164;28;20486;-82
2022/10/01 07:37:17;;;;;;;2.75;1.20;;;;;;;;;;5052450;28;20028;-81
2022/10/01 07:39:42;;;;;;;2.55;1.42;;;;;;;;;;5051021;28;20164;-82
2022/10/01 07:42:08;;;;;;;3.75;1.60;;;;;;;;;;5073097;28;20025;-83
2022/10/01 07:44:33;;;;;;;2.53;1.45;;;;;;;;;;5070972;28;20040;-83
2022/10/01 07:46:59;;;;;;;3.75;1.70;;;;;;;;;;5050123;28;20028;-81
2022/10/01 07:49:25;;;;;;;1.52;1.42;;;;;;;;;;5050959;28;20040;-84
2022/10/01 07:51:57;;;;;;;2.33;1.80;;;;;;;;;;5065373;28;20025;-81
2022/10/01 07:54:24;;;;;;;3.28;1.60;;;;;;;;;;5053146;28;20036;-82
2022/10/01 07:56:51;;;;;;;2.10;1.42;;;;;;;;;;5052819;28;20040;-83
2022/10/01 07:59:17;;;;;;;1.20;1.20;;;;;;;;;;5050676;28;20016;-82
2022/10/01 08:01:43;;;;;;;1.95;1.35;;;;;;;;;;5043222;28;20028;-82
2022/10/01 08:06:53;;;;;;;4.50;1.42;;;;;;;;;;5067327;28;20068;-81
2022/10/01 08:09:20;;;;;;;2.20;1.30;;;;;;;;;;5072046;28;20025;-82
2022/10/01 08:11:46;;;;;;;2.95;1.20;;;;;;;;;;5047994;28;20040;-80
2022/10/01 08:14:12;;;;;;;2.45;1.30;;;;;;;;;;5049450;28;20028;-81
2022/10/01 08:16:39;;;;;;;1.48;1.27;;;;;;;;;;5052927;28;20462;-82
2022/10/01 08:19:08;;;;;;;1.30;1.20;;;;;;;;;;5059030;28;20048;-82
2022/10/01 08:21:34;;;;;;;1.38;1.25;;;;;;;;;;5071654;28;20029;-80
2022/10/01 08:24:04;;;;;;;1.52;1.35;;;;;;;;;;5073352;28;20044;-82
2022/10/01 08:26:29;;;;;;;3.90;1.60;;;;;;;;;;5073197;28;20028;-81
2022/10/01 08:28:55;;;;;;;2.83;1.52;;;;;;;;;;5052615;28;20467;-82
2022/10/01 08:31:22;;;;;;;2.25;1.33;;;;;;;;;;5053968;28;20067;-81
2022/10/01 08:33:47;;;;;;;1.60;1.23;;;;;;;;;;5052049;28;20024;-82
2022/10/01 08:36:13;;;;;;;1.48;1.15;;;;;;;;;;5065088;28;20025;-82
2022/10/01 08:38:39;;;;;;;2.67;0.95;;;;;;;;;;5049875;28;20021;-82
2022/10/01 08:41:22;;;;;;;1.45;1.30;;;;;;;;;;5045532;28;20027;-82
2022/10/01 08:43:50;;;;;;;1.88;1.30;;;;;;;;;;5048273;28;20062;-82
2022/10/01 08:46:19;;;;;;;4.03;1.55;;;;;;;;;;5058471;28;20029;-82
2022/10/01 08:49:16;;;;;;;1.05;1.02;;;;;;;;;;5074361;28;20024;-81
2022/10/01 08:51:48;;;;;;;1.20;1.10;;;;;;;;;;5082397;28;20021;-81
2022/10/01 08:54:34;;;;;;;4.13;1.50;;;;;;;;;;5075756;28;20094;-82
2022/10/01 08:57:03;;;;;;;2.55;1.35;;;;;;;;;;5046483;28;20089;-82
2022/10/01 08:59:38;;;;;;;1.25;1.15;;;;;;;;;;5067206;28;20025;-82
2022/10/01 09:02:22;;;;;;;1.35;0.93;;;;;;;;;;5055942;28;20498;-82
2022/10/01 09:04:54;;;;;;;1.15;1.10;;;;;;;;;;5048891;28;20384;-82
2022/10/01 09:08:04;;;;;;;2.17;0.93;;;;;;;;;;5052497;28;20075;-81
2022/10/01 09:10:42;;;;;;;0.88;0.88;;;;;;;;;;5051823;28;20032;-82
2022/10/01 09:13:45;;;;;;;1.83;1.08;;;;;;;;;;5069656;28;20021;-82
2022/10/01 09:16:28;;;;;;;1.20;1.17;;;;;;;;;;5069791;28;20016;-82
2022/10/01 09:19:06;;;;;;;3.95;1.23;;;;;;;;;;5067799;28;20028;-83
2022/10/01 09:22:24;;;;;;;1.38;1.27;;;;;;;;;;5100574;22;20041;-83
2022/10/01 09:25:01;;;;;;;1.33;0.85;;;;;;;;;;5015865;28;20120;-84
2022/10/01 09:27:27;;;;;;;4.38;1.10;;;;;;;;;;5052216;28;20056;-83
2022/10/01 09:30:23;;;;;;;3.85;1.35;;;;;;;;;;5041874;28;20040;-83
2022/10/01 09:33:14;;;;;;;2.20;1.05;;;;;;;;;;5014300;28;20092;-83
2022/10/01 09:35:46;;;;;;;1.40;0.80;;;;;;;;;;5016772;28;20570;-83
2022/10/01 09:38:44;;;;;;;1.10;1.10;;;;;;;;;;5022230;28;20032;-84
2022/10/01 09:41:10;;;;;;;2.75;1.13;;;;;;;;;;5021479;28;20057;-83
2022/10/01 09:43:38;;;;;;;1.55;1.10;;;;;;;;;;5027418;28;20034;-82
2022/10/01 09:46:11;;;;;;;1.52;1.00;;;;;;;;;;5044152;28;20066;-83
2022/10/01 09:48:59;;;;;;;4.57;1.42;;;;;;;;;;5038345;28;20033;-83
2022/10/01 09:51:31;;;;;;;1.17;1.08;;;;;;;;;;5027832;28;20029;-83
2022/10/01 09:54:03;;;;;;;2.50;0.77;;;;;;;;;;5023606;28;20100;-83
2022/10/01 09:56:32;;;;;;;;;;;;;;;;;;5011402;28;20032;-83
2022/10/01 09:59:03;;;;;;;0.75;0.75;;;;;;;;;;5026597;28;19921;-83
2022/10/01 10:01:42;;;;;;;1.38;1.02;;;;;;;;;;5029143;28;20072;-83
2022/10/01 10:04:08;;;;;;;0.80;0.80;;;;;;;;;;5021122;28;20018;-81
2022/10/01 10:06:33;;;;;;;0.75;0.75;;;;;;;;;;5018177;28;20040;-80
2022/10/01 10:09:00;;;;;;;0.93;0.82;;;;;;;;;;5027786;28;20034;-81
2022/10/01 10:11:28;;;;;;;1.23;1.13;;;;;;;;;;5017279;28;20884;-80
2022/10/01 10:14:02;;;;;;;1.20;1.15;;;;;;;;;;5018398;28;20076;-82
2022/10/01 10:16:32;;;;;;;1.30;1.20;;;;;;;;;;5017905;28;20049;-79
2022/10/01 10:19:01;;;;;;;3.80;1.35;;;;;;;;;;5019541;28;20116;-81
2022/10/01 10:21:30;;;;;;;2.35;1.38;;;;;;;;;;5023806;28;20026;-82
2022/10/01 10:23:58;;;;;;;2.08;1.50;;;;;;;;;;5029608;28;20395;-81
2022/10/01 10:26:30;;;;;;;1.23;1.13;;;;;;;;;;5029611;28;20057;-83
2022/10/01 10:28:57;;;;;;;3.40;1.20;;;;;;;;;;5045869;28;20089;-83
2022/10/01 10:31:26;;;;;;;1.35;1.10;;;;;;;;;;5032775;28;20499;-83
2022/10/01 10:34:20;;;;;;;1.88;1.40;;;;;;;;;;5030563;28;20032;-83
2022/10/01 10:36:46;;;;;;;0.90;0.90;;;;;;;;;;5021899;28;20033;-82
2022/10/01 10:39:34;;;;;;;1.58;1.10;;;;;;;;;;5027943;28;20058;-82
2022/10/01 10:42:01;;;;;;;2.78;1.30;;;;;;;;;;5016799;28;20034;-83
2022/10/01 10:44:33;;;;;;;5.20;1.00;;;;;;;;;;5015962;28;21164;-83
2022/10/01 10:47:02;;;;;;;1.02;1.02;;;;;;;;;;5019873;28;20044;-83
2022/10/01 10:49:35;;;;;;;1.33;0.93;;;;;;;;;;5030285;28;20036;-83
2022/10/01 10:52:01;;;;;;;0.55;0.55;;;;;;;;;;5035146;28;20026;-83
2022/10/01 10:54:29;;;;;;;0.98;0.90;;;;;;;;;;5023716;28;20036;-83
2022/10/01 10:57:03;;;;;;;1.25;0.80;;;;;;;;;;5017863;28;20061;-81
2022/10/01 10:59:31;;;;;;;1.88;1.05;;;;;;;;;;5020754;28;20034;-81
2022/10/01 11:01:57;;;;;;;2.05;0.90;;;;;;;;;;5021678;28;20061;-82
2022/10/01 11:04:39;;;;;;;0.65;0.65;;;;;;;;;;5023498;28;20068;-84
2022/10/01 11:07:05;;;;;;;0.80;0.80;;;;;;;;;;5015979;28;20021;-82
2022/10/01 11:09:46;;;;;;;0.77;0.73;;;;;;;;;;5023023;28;20137;-83
2022/10/01 11:12:35;;;;;;;0.60;0.60;;;;;;;;;;5023785;28;20017;-83
2022/10/01 11:15:08;;;;;;;0.77;0.60;;;;;;;;;;5019951;28;20026;-81
2022/10/01 11:17:55;;;;;;;0.50;0.50;;;;;;;;;;5003516;28;20026;-80
2022/10/01 11:20:46;;;;;;;1.48;0.82;;;;;;;;;;5013529;28;20050;-82
2022/10/01 11:23:32;;;;;;;0.60;0.60;;;;;;;;;;5023678;28;20037;-80
2022/10/01 11:26:24;;;;;;;0.60;0.60;;;;;;;;;;5020849;28;20064;-81
2022/10/01 11:29:01;;;;;;;0.77;0.75;;;;;;;;;;5015893;28;20369;-80
2022/10/01 11:31:57;;;;;;;0.50;0.50;;;;;;;;;;5027124;28;20037;-81
2022/10/01 11:34:29;;;;;;;1.23;0.95;;;;;;;;;;4998285;28;20101;-81
2022/10/01 11:37:11;;;;;;;2.05;1.40;;;;;;;;;;5016370;28;20038;-80
2022/10/01 11:39:41;;;;;;;1.10;0.90;;;;;;;;;;5037130;28;20038;-81
2022/10/01 11:42:13;;;;;;;1.27;1.17;;;;;;;;;;5029742;28;20106;-80
2022/10/01 11:44:43;;;;;;;1.50;1.10;;;;;;;;;;5020222;28;20022;-80
2022/10/01 11:47:09;;;;;;;0.80;0.70;;;;;;;;;;5028258;28;20035;-80
2022/10/01 11:49:52;;;;;;;0.98;0.90;;;;;;;;;;5026090;28;20026;-80
2022/10/01 11:52:46;;;;;;;1.48;1.08;;;;;;;;;;5026562;28;20430;-81
2022/10/01 11:58:49;;;;;;;0.80;0.70;;;;;;;;;;5022552;28;20040;-80
2022/10/01 12:01:20;;;;;;;0.80;0.80;;;;;;;;;;5027821;28;20028;-81
2022/10/01 12:04:34;;;;;;;0.50;0.50;;;;;;;;;;5026315;28;20024;-80
2022/10/01 12:07:22;;;;;;;0.52;0.52;;;;;;;;;;4938679;29;20122;-80
2022/10/01 12:09:47;;;;;;;0.40;0.40;;;;;;;;;;4923243;29;20024;-80
2022/10/01 12:12:18;;;;;;;2.65;1.30;;;;;;;;;;4993447;28;20088;-81
2022/10/01 12:14:51;;;;;;;0.45;0.45;;;;;;;;;;5022446;28;20555;-82
2022/10/01 12:17:35;;;;;;;0.65;0.65;;;;;;;;;;5019287;28;20091;-82
2022/10/01 12:20:04;;;;;;;0.50;0.50;;;;;;;;;;5018546;28;20394;-81
2022/10/01 12:22:33;;;;;;;0.65;0.65;;;;;;;;;;5030790;28;20403;-81
2022/10/01 12:24:58;;;;;;;0.90;0.50;;;;;;;;;;5020042;28;20380;-81
2022/10/01 12:27:55;;;;;;;0.57;0.55;;;;;;;;;;5023933;28;20029;-81
2022/10/01 12:30:28;;;;;;;0.60;0.60;;;;;;;;;;5023119;28;20376;-82
2022/10/01 12:32:59;;;;;;;0.60;0.60;;;;;;;;;;5023483;28;20022;-83
2022/10/01 12:35:34;;;;;;;0.43;0.43;;;;;;;;;;5018053;28;20038;-82
2022/10/01 12:38:24;;;;;;;0.70;0.70;;;;;;;;;;5019483;28;20088;-82
2022/10/01 12:41:05;;;;;;;1.02;0.65;;;;;;;;;;5024932;28;20023;-82
2022/10/01 12:43:59;;;;;;;0.45;0.43;;;;;;;;;;5022756;28;20476;-80
2022/10/01 12:46:47;;;;;;;0.40;0.40;;;;;;;;;;5018261;28;20084;-83
2022/10/01 12:49:33;;;;;;;0.65;0.65;;;;;;;;;;5025513;28;20025;-79
2022/10/01 12:52:16;;;;;;;0.70;0.60;;;;;;;;;;5020196;28;20026;-81
2022/10/01 12:54:59;;;;;;;0.73;0.73;;;;;;;;;;5023641;28;20036;-81
2022/10/01 12:57:50;;;;;;;0.50;0.50;;;;;;;;;;5020815;28;20034;-82
2022/10/01 13:00:21;;;;;;;0.70;0.70;;;;;;;;;;5024268;28;20475;-81
2022/10/01 13:03:01;;;;;;;1.00;0.77;;;;;;;;;;5016303;28;20095;-82
2022/10/01 13:05:49;;;;;;;1.67;0.70;;;;;;;;;;5021391;28;20037;-84
2022/10/01 13:08:15;;;;;;;0.73;0.73;;;;;;;;;;5013390;28;20025;-82
2022/10/01 13:11:07;;;;;;;0.43;0.43;;;;;;;;;;5031542;28;20040;-81
2022/10/01 13:13:33;;;;;;;0.93;0.80;;;;;;;;;;5038061;28;20033;-80
2022/10/01 13:16:28;;;;;;;5.82;0.75;;;;;;;;;;5016957;28;20072;-80
2022/10/01 13:19:10;;;;;;;0.63;0.63;;;;;;;;;;5005995;28;20389;-80
2022/10/01 13:21:43;;;;;;;;;;;;;;;;;;5022657;28;20032;-80
2022/10/01 13:24:30;;;;;;;0.82;0.77;;;;;;;;;;5023412;28;19938;-80
2022/10/01 13:26:58;;;;;;;0.50;0.50;;;;;;;;;;5015423;28;20033;-79
2022/10/01 13:29:34;;;;;;;0.68;0.68;;;;;;;;;;5036111;28;20475;-80
2022/10/01 13:32:24;;;;;;;0.50;0.50;;;;;;;;;;5027803;28;20033;-79
2022/10/01 13:34:50;;;;;;;0.82;0.80;;;;;;;;;;5019433;28;20652;-80
2022/10/01 13:37:29;;;;;;;1.08;0.73;;;;;;;;;;5016652;28;20498;-80
2022/10/01 13:39:56;;;;;;;0.75;0.68;;;;;;;;;;5021525;28;20134;-80
2022/10/01 13:42:27;;;;;;;0.60;0.60;;;;;;;;;;5021064;28;20030;-80
2022/10/01 13:44:55;;;;;;;1.65;0.68;;;;;;;;;;5020314;28;21314;-80
2022/10/01 13:47:21;;;;;;;0.98;0.98;;;;;;;;;;5016132;28;20049;-80
2022/10/01 13:50:03;;;;;;;1.30;1.10;;;;;;;;;;5012057;28;20116;-80
2022/10/01 13:52:30;;;;;;;0.98;0.73;;;;;;;;;;5010555;28;20034;-79
2022/10/01 13:54:57;;;;;;;0.60;0.60;;;;;;;;;;5009932;28;20061;-79
2022/10/01 13:57:37;;;;;;;0.60;0.60;;;;;;;;;;5010355;28;20141;-81
2022/10/01 14:00:11;;;;;;;0.77;0.50;;;;;;;;;;5006634;28;20034;-79
2022/10/01 14:03:05;;;;;;;0.50;0.50;;;;;;;;;;5006869;28;20495;-80
2022/10/01 14:05:38;;;;;;;1.95;0.73;;;;;;;;;;4997904;28;20117;-80
2022/10/01 14:08:14;;;;;;;1.58;0.70;;;;;;;;;;5000162;28;20117;-79
2022/10/01 14:16:16;;;;;;;1.33;0.73;;;;;;;;;;4999942;28;20080;-80
2022/10/01 14:18:43;;;;;;;1.35;0.93;;;;;;;;;;5011266;28;20030;-81
2022/10/01 14:21:33;;;;;;;0.75;0.75;;;;;;;;;;5004460;28;20739;-81
2022/10/01 14:24:23;;;;;;;0.95;0.60;;;;;;;;;;5003037;28;20039;-82
2022/10/01 14:27:03;;;;;;;0.50;0.50;;;;;;;;;;5000726;28;21344;-81
2022/10/01 14:29:47;;;;;;;0.75;0.60;;;;;;;;;;5015788;28;20038;-80
2022/10/01 14:32:19;;;;;;;0.40;0.40;;;;;;;;;;5015066;28;20052;-79
2022/10/01 14:35:03;;;;;;;;;;;;;;;;;;5017466;28;20032;-82
2022/10/01 14:37:29;;;;;;;0.80;0.50;;;;;;;;;;5006013;28;20230;-81
2022/10/01 14:40:37;;;;;;;0.47;0.40;;;;;;;;;;5003030;28;20404;-82
2022/10/01 14:43:15;;;;;;;0.65;0.30;;;;;;;;;;5005049;28;20050;-81
2022/10/01 14:46:04;;;;;;;0.57;0.57;;;;;;;;;;5003539;28;20033;-81
2022/10/01 14:48:33;;;;;;;0.52;0.50;;;;;;;;;;5008824;28;20022;-81
2022/10/01 14:51:02;;;;;;;0.80;0.52;;;;;;;;;;5010054;28;20490;-82
2022/10/01 14:53:31;;;;;;;0.22;0.22;;;;;;;;;;5010525;28;20089;-81
2022/10/01 14:56:01;;;;;;;2.17;0.63;;;;;;;;;;5007904;28;20120;-82
2022/10/01 14:58:30;;;;;;;0.95;0.75;;;;;;;;;;5009873;28;20125;-81
2022/10/01 15:00:56;;;;;;;3.40;0.50;;;;;;;;;;5007413;28;20563;-81
2022/10/01 15:03:22;;;;;;;1.80;0.52;;;;;;;;;;5002366;28;20065;-80
2022/10/01 15:05:49;;;;;;;0.32;0.32;;;;;;;;;;5005626;28;20053;-86
2022/10/01 15:08:34;;;;;;;3.40;0.45;;;;;;;;;;5003009;28;20095;-81
2022/10/01 15:11:03;;;;;;;11.63;1.80;;;;;;;;;;5016131;28;20364;-82
2022/10/01 15:13:34;;;;;;;2.63;1.08;;;;;;;;;;5006913;28;20124;-82
2022/10/01 15:16:00;;;;;;;5.05;1.60;;;;;;;;;;5006445;28;20072;-82
2022/10/01 15:18:27;;;;;;;0.75;0.65;;;;;;;;;;5017698;28;20025;-81
2022/10/01 15:20:59;;;;;;;2.30;1.10;;;;;;;;;;5018812;28;20032;-81
2022/10/01 15:23:25;;;;;;;;;;;;;;;;;;5017896;28;20045;-81
2022/10/01 15:25:52;;;;;;;1.02;0.32;;;;;;;;;;4998962;28;19913;-81